Nearby METAR Reports

 

KOXC - Oxford/Waterbury, Connecticut, USA
Distance from station: SE 8mi, 12km
Updated: Thu, 17-Apr-2014 5:52pm EDT
Clear
Clear
 Wind from S
Wind: S 14 mph , 22 km/h
Temperature: 43°F , 6°C
Wind Chill: 36°F , 2°C
Dew Point: 27°F , -3°C
Humidity: 53%
Barometer: 30.67 inHg , 1038.6 hPa
Clouds: Clear
Visibility: 10 miles , 16 km
2014/04/17 21:52 KOXC 172152Z 18012KT 10SM CLR 06/M03 A3067
KDXR - Danbury, Connecticut, USA
Distance from station: SW 19mi, 30km
Updated: Thu, 17-Apr-2014 5:53pm EDT
Clear
Clear
 Wind from SSE
Wind: SSE 8 mph , 13 km/h
Temperature: 45°F , 7°C
Wind Chill: 41°F , 5°C
Dew Point: 27°F , -3°C
Humidity: 49%
Barometer: 30.64 inHg , 1037.6 hPa
Clouds: Clear
Visibility: 10 miles , 16 km
2014/04/17 21:53 KDXR 172153Z 15007KT 10SM CLR 07/M03 A3064 RMK AO2 SLP380 T00671033
 
KMMK - Meriden, Connecticut, USA
Distance from station: E 20mi, 33km
Updated: Thu, 17-Apr-2014 5:53pm EDT
Clear
Clear
 Wind from S
Wind: S 10 mph , 17 km/h
Temperature: 46°F , 8°C
Wind Chill: 41°F , 5°C
Dew Point: 28°F , -2°C
Humidity: 50%
Barometer: 30.66 inHg , 1038.3 hPa
Clouds: Clear
Visibility: 10 miles , 16 km
2014/04/17 21:53 KMMK 172153Z AUTO 19009KT 10SM CLR 08/M02 A3066 RMK AO2 SLP383 T00781017 TSNO
KBDR - Bridgeport, Connecticut, USA
Distance from station: S 27mi, 44km
Updated: Thu, 17-Apr-2014 5:52pm EDT
Clear
Clear
 Wind from E
Wind: E 13 mph , 20 km/h
Temperature: 45°F , 7°C
Wind Chill: 39°F , 4°C
Dew Point: 30°F , -1°C
Humidity: 57%
Barometer: 30.67 inHg , 1038.6 hPa
Clouds: Clear
Visibility: 10 miles , 16 km
2014/04/17 21:52 KBDR 172152Z 09011KT 10SM CLR 07/M01 A3067 RMK AO2 SLP386 T00671006
 
KHVN - New Haven/Tweed, Connecticut, USA
Distance from station: SE 27mi, 44km
Updated: Thu, 17-Apr-2014 5:53pm EDT
Mostly cloudy
Mostly cloudy
 Wind from ESE
Wind: ESE 14 mph , 22 km/h, Gust: 18 mph , 30 km/h
Temperature: 43°F , 6°C
Wind Chill: 36°F , 2°C
Dew Point: 30°F , -1°C
Humidity: 61%
Barometer: 30.67 inHg , 1038.6 hPa
Clouds: Mostly cloudy
Visibility: 10 miles , 16 km
Cloud details: Mostly cloudy 25000 ft
2014/04/17 21:53 KHVN 172153Z 12012G16KT 10SM BKN250 06/M01 A3067 RMK AO2 SLP386 T00611011
KHFD - Hartford/Brainar, Connecticut, USA
Distance from station: ENE 32mi, 52km
Updated: Thu, 17-Apr-2014 5:53pm EDT
Clear
Clear
 Wind from ENE
Wind: ENE 10 mph , 17 km/h
Temperature: 50°F , 10°C
Wind Chill: 46°F , 8°C
Dew Point: 19°F , -7°C
Humidity: 30%
Barometer: 30.65 inHg , 1037.9 hPa
Clouds: Clear
Visibility: 10 miles , 16 km
2014/04/17 21:53 KHFD 172153Z 06009KT 10SM CLR 10/M07 A3065 RMK AO2 SLP378 T01001067
 
KPOU - Poughkeepsie, New York, USA
Distance from station: W 35mi, 56km
Updated: Thu, 17-Apr-2014 5:53pm EDT
Clear
Clear
 Wind from W
Wind: W 8 mph , 13 km/h
Temperature: 52°F , 11°C
Dew Point: 21°F , -6°C
Humidity: 30%
Barometer: 30.60 inHg , 1036.2 hPa
Clouds: Clear
Visibility: 10 miles , 16 km
2014/04/17 21:53 KPOU 172153Z 27007KT 10SM CLR 11/M06 A3060 RMK AO2 SLP361 T01061061
KBDL - Windsor Locks, Connecticut, USA
Distance from station: NE 38mi, 62km
Updated: Thu, 17-Apr-2014 5:51pm EDT
Overcast
Overcast
 Wind from E
Wind: E 10 mph , 17 km/h
Temperature: 50°F , 10°C
Wind Chill: 46°F , 8°C
Dew Point: 19°F , -7°C
Humidity: 30%
Barometer: 30.64 inHg , 1037.6 hPa
Clouds: Overcast
Visibility: 10 miles , 16 km
Cloud details: Mostly cloudy 22000 ft
Overcast 25000 ft
2014/04/17 21:51 KBDL 172151Z 08009KT 10SM BKN220 OVC250 10/M07 A3064 RMK AO2 SLP378 T01001072
 
KSNC - Chester, Connecticut, USA
Distance from station: ESE 39mi, 63km
Updated: Thu, 17-Apr-2014 5:35pm EDT
Clear
Clear
 Wind from SE
Wind: SE 9 mph , 15 km/h
Temperature: 43°F , 6°C
Wind Chill: 38°F , 3°C
Dew Point: 30°F , -1°C
Humidity: 61%
Barometer: 30.66 inHg , 1038.3 hPa
Clouds: Clear
Visibility: 10 miles , 16 km
2014/04/17 21:35 KSNC 172135Z AUTO 14008KT 10SM CLR 06/M01 A3066 RMK AO2
KHPN - White Plains, New York, USA
Distance from station: SW 42mi, 67km
Updated: Thu, 17-Apr-2014 4:56pm EDT
Few Clouds
Few Clouds
 Wind from SE
Wind: SE 13 mph , 20 km/h
Temperature: 46°F , 8°C
Wind Chill: 40°F , 4°C
Dew Point: 18°F , -8°C
Humidity: 32%
Barometer: 30.64 inHg , 1037.6 hPa
Clouds: Few Clouds
Visibility: 10 miles , 16 km
Cloud details: Few Clouds 6000 ft
2014/04/17 20:56 KHPN 172056Z 13011KT 10SM FEW060 08/M08 A3064 RMK AO2 SLP381 T00781078 57016
 
KSWF - Newburgh/Stewart, New York, USA
Distance from station: W 45mi, 72km
Updated: Thu, 17-Apr-2014 5:45pm EDT
Clear
Clear
 Wind from S
Wind: S 12 mph , 19 km/h
Temperature: 48°F , 9°C
Wind Chill: 43°F , 6°C
Dew Point: 21°F , -6°C
Humidity: 34%
Barometer: 30.62 inHg , 1036.9 hPa
Clouds: Clear
Visibility: 20 miles , 32 km
2014/04/17 21:45 KSWF 172145Z 18010KT 20SM SKC 09/M06 A3062
KBAF - Westfield, Massachusetts, USA
Distance from station: NNE 50mi, 80km
Updated: Thu, 17-Apr-2014 5:53pm EDT
Clear
Clear
 Wind from ENE
Wind: ENE 9 mph , 15 km/h
Temperature: 50°F , 10°C
Wind Chill: 46°F , 8°C
Dew Point: 19°F , -7°C
Humidity: 30%
Barometer: 30.64 inHg , 1037.6 hPa
Clouds: Clear
Visibility: 10 miles , 16 km
2014/04/17 21:53 KBAF 172153Z 06008KT 10SM CLR 10/M07 A3064 RMK AO2 SLP382 T01001067